LLBGLLSD

Guest
Details From LLBG - Tel Aviv Ben Gurion
To LLSD - Sde Dov
Flight Number -
Tags Routegen Generated
Created
Modified
Stats Distance 4 nm / 8 km
Max Altitude 0 ft / 0 m
Waypoints 2
Social Downloads 3
Likes 0
Share VATSIM

Download

Looking for another format? Having issues loading an existing format? Contact us
Advertisement - Login to hide

Notes

Departing runway 25 LLBG. Arriving runway 2 LLSD.

Route

LLBG +32.00_+034.78

ID Type Via Altitude (ft/m) Position (lat/lon) Dist (leg/tot) Name
O LLBG APT - 0 / 0 32.01303 / 34.86038 - / 0 nm
O +32.00_+034.78 DME - 0 / 0 32.00011 / 34.77642 4 / 4 nm

Altitude Profile

Advertisement - Login to hide

LLBG

Details ICAO LLBG (TLV)
Name Tel Aviv Ben Gurion
Region Israel
Timezone Asia/Jerusalem (UTC+3.0)
Stats Elevation 133 ft / 41 m (AMSL)
Location 32.009800° 34.883900°
Runways 3
Magnetic Variation 4.757° E

METAR

LLBG 230820Z 23007KT CAVOK 34/08 Q1011 NOSIG

Decode

TAF

TAF TAF LLBG 230504Z 2306/2406 20005KT CAVOK BECMG 2307/2309 25008KT BECMG 2314/2316 32005KT BECMG 2318/2320 VRB03KT BECMG 2323/2401 15005KT TX33/2310Z TN22/2403Z

Decode

Departure Runways

ID Width Length Bearing (true/mag) Surface Threshold Overrun Markings Lighting
03 197 ft / 60 m 9,119 ft / 2,780 m 28.69° / 23.93° ASPHALT 0 ft / 0 m 883 ft / 269 m PREC-APP CENTERLINE EDGE THRESHOLD MALSF
08 148 ft / 45 m 13,340 ft / 4,066 m 79.76° / 75.00° ASPHALT 1,312 ft / 400 m 978 ft / 298 m PREC-APP CENTERLINE EDGE THRESHOLD MALSF
12 148 ft / 45 m 10,219 ft / 3,115 m 121.57° / 116.82° ASPHALT 0 ft / 0 m 994 ft / 303 m PREC-APP CENTERLINE EDGE THRESHOLD MALSF
21 197 ft / 60 m 9,119 ft / 2,780 m 208.70° / 203.94° ASPHALT 0 ft / 0 m 955 ft / 291 m PREC-APP CENTERLINE EDGE THRESHOLD MALSF
26 148 ft / 45 m 13,340 ft / 4,066 m 259.78° / 255.02° ASPHALT 1,982 ft / 604 m 194 ft / 59 m PREC-APP CENTERLINE EDGE THRESHOLD MALSF
30 148 ft / 45 m 10,219 ft / 3,115 m 301.59° / 296.83° ASPHALT 279 ft / 85 m 702 ft / 214 m PREC-APP CENTERLINE EDGE THRESHOLD MALSF

LLSD

Details ICAO LLSD (SDV)
Name Sde Dov
Region Israel
Timezone Asia/Jerusalem (UTC+3.0)
Stats Elevation 43 ft / 13 m (AMSL)
Location 32.114700° 34.782200°
Runways 1
Magnetic Variation 4.767° E

METAR

LLSD 230750Z 22008KT CAVOK 29/17 Q1011 RMK FEW140

Decode

TAF

TAF LLSD 230506Z 2306/2406 12006KT CAVOK BECMG 2307/2309 25012KT BECMG 2314/2316 32005KT BECMG 2318/2320 VRB03KT BECMG 2323/2401 15005KT TX31/2309Z TN23/2403Z

Decode

Destination Runways

ID Width Length Bearing (true/mag) Surface Threshold Overrun Markings Lighting
03 98 ft / 30 m 5,704 ft / 1,738 m 27.61° / 22.84° ASPHALT 341 ft / 104 m 0 ft / 0 m APP EDGE THRESHOLD
21 98 ft / 30 m 5,704 ft / 1,738 m 207.61° / 202.85° ASPHALT 230 ft / 70 m 0 ft / 0 m APP EDGE THRESHOLD

Popular Alternatives